sensor_id;sensor_type;location;lat;lon;timestamp;P1;durP1;ratioP1;P2;durP2;ratioP2
26157;SDS011;67284;44.782;10.282;2023-11-19T00:01:11;4.82;;;3.20;;
26157;SDS011;67284;44.782;10.282;2023-11-19T00:06:03;8.88;;;3.28;;
26157;SDS011;67284;44.782;10.282;2023-11-19T00:10:56;7.10;;;3.90;;
26157;SDS011;67284;44.782;10.282;2023-11-19T00:15:47;6.75;;;3.67;;
26157;SDS011;67284;44.782;10.282;2023-11-19T00:20:39;7.93;;;4.28;;
26157;SDS011;67284;44.782;10.282;2023-11-19T00:25:31;6.60;;;3.13;;
26157;SDS011;67284;44.782;10.282;2023-11-19T00:30:23;5.93;;;3.38;;
26157;SDS011;67284;44.782;10.282;2023-11-19T00:35:15;6.57;;;3.40;;
26157;SDS011;67284;44.782;10.282;2023-11-19T00:40:07;6.57;;;3.20;;
26157;SDS011;67284;44.782;10.282;2023-11-19T00:45:02;3.45;;;2.85;;
26157;SDS011;67284;44.782;10.282;2023-11-19T00:49:55;4.47;;;3.08;;
26157;SDS011;67284;44.782;10.282;2023-11-19T00:54:47;3.45;;;2.25;;
26157;SDS011;67284;44.782;10.282;2023-11-19T00:59:41;5.05;;;3.15;;
26157;SDS011;67284;44.782;10.282;2023-11-19T01:04:34;3.50;;;2.60;;
26157;SDS011;67284;44.782;10.282;2023-11-19T01:09:27;3.35;;;2.28;;
26157;SDS011;67284;44.782;10.282;2023-11-19T01:14:19;4.45;;;2.75;;
26157;SDS011;67284;44.782;10.282;2023-11-19T01:19:11;5.85;;;2.42;;
26157;SDS011;67284;44.782;10.282;2023-11-19T01:24:08;6.70;;;2.87;;
26157;SDS011;67284;44.782;10.282;2023-11-19T01:29:01;4.25;;;2.80;;
26157;SDS011;67284;44.782;10.282;2023-11-19T01:33:53;4.68;;;3.92;;
26157;SDS011;67284;44.782;10.282;2023-11-19T01:38:45;5.35;;;2.50;;
26157;SDS011;67284;44.782;10.282;2023-11-19T01:43:37;4.30;;;2.63;;
26157;SDS011;67284;44.782;10.282;2023-11-19T01:48:33;3.53;;;2.70;;
26157;SDS011;67284;44.782;10.282;2023-11-19T01:53:26;3.25;;;2.15;;
26157;SDS011;67284;44.782;10.282;2023-11-19T01:58:19;3.45;;;2.30;;
26157;SDS011;67284;44.782;10.282;2023-11-19T02:03:11;3.65;;;2.33;;
26157;SDS011;67284;44.782;10.282;2023-11-19T02:08:03;3.95;;;2.60;;
26157;SDS011;67284;44.782;10.282;2023-11-19T02:12:55;3.25;;;2.22;;
26157;SDS011;67284;44.782;10.282;2023-11-19T02:17:56;3.25;;;2.50;;
26157;SDS011;67284;44.782;10.282;2023-11-19T02:22:49;4.13;;;2.22;;
26157;SDS011;67284;44.782;10.282;2023-11-19T02:27:49;2.88;;;2.15;;
26157;SDS011;67284;44.782;10.282;2023-11-19T02:32:47;4.53;;;2.58;;
26157;SDS011;67284;44.782;10.282;2023-11-19T02:37:39;4.78;;;2.38;;
26157;SDS011;67284;44.782;10.282;2023-11-19T02:42:32;3.85;;;2.50;;
26157;SDS011;67284;44.782;10.282;2023-11-19T02:47:24;3.40;;;2.22;;
26157;SDS011;67284;44.782;10.282;2023-11-19T02:52:16;5.40;;;2.55;;
26157;SDS011;67284;44.782;10.282;2023-11-19T02:57:08;3.70;;;2.63;;
26157;SDS011;67284;44.782;10.282;2023-11-19T03:02:12;4.60;;;2.35;;
26157;SDS011;67284;44.782;10.282;2023-11-19T03:07:08;4.18;;;2.60;;
26157;SDS011;67284;44.782;10.282;2023-11-19T03:12:00;4.00;;;2.25;;
26157;SDS011;67284;44.782;10.282;2023-11-19T03:16:52;3.42;;;2.25;;
26157;SDS011;67284;44.782;10.282;2023-11-19T03:21:45;5.47;;;2.92;;
26157;SDS011;67284;44.782;10.282;2023-11-19T03:26:36;3.97;;;2.33;;
26157;SDS011;67284;44.782;10.282;2023-11-19T03:31:28;4.60;;;2.65;;
26157;SDS011;67284;44.782;10.282;2023-11-19T03:36:21;5.60;;;2.58;;
26157;SDS011;67284;44.782;10.282;2023-11-19T03:41:14;3.95;;;2.15;;
26157;SDS011;67284;44.782;10.282;2023-11-19T03:46:19;3.88;;;2.22;;
26157;SDS011;67284;44.782;10.282;2023-11-19T03:51:12;6.22;;;2.53;;
26157;SDS011;67284;44.782;10.282;2023-11-19T03:56:06;3.17;;;2.55;;
26157;SDS011;67284;44.782;10.282;2023-11-19T04:01:00;3.40;;;2.00;;
26157;SDS011;67284;44.782;10.282;2023-11-19T04:05:53;2.97;;;1.83;;
26157;SDS011;67284;44.782;10.282;2023-11-19T04:10:44;3.58;;;2.25;;
26157;SDS011;67284;44.782;10.282;2023-11-19T04:15:36;2.97;;;2.30;;
26157;SDS011;67284;44.782;10.282;2023-11-19T04:20:28;3.22;;;1.63;;
26157;SDS011;67284;44.782;10.282;2023-11-19T04:25:20;3.30;;;2.08;;
26157;SDS011;67284;44.782;10.282;2023-11-19T04:30:14;2.53;;;1.85;;
26157;SDS011;67284;44.782;10.282;2023-11-19T04:35:07;2.95;;;2.03;;
26157;SDS011;67284;44.782;10.282;2023-11-19T04:39:59;3.50;;;2.17;;
26157;SDS011;67284;44.782;10.282;2023-11-19T04:44:51;2.35;;;1.80;;
26157;SDS011;67284;44.782;10.282;2023-11-19T04:49:44;3.78;;;2.15;;
26157;SDS011;67284;44.782;10.282;2023-11-19T04:54:35;2.40;;;1.67;;
26157;SDS011;67284;44.782;10.282;2023-11-19T04:59:33;4.13;;;1.88;;
26157;SDS011;67284;44.782;10.282;2023-11-19T05:04:26;4.47;;;1.90;;
26157;SDS011;67284;44.782;10.282;2023-11-19T05:09:17;1.98;;;1.77;;
26157;SDS011;67284;44.782;10.282;2023-11-19T05:14:09;5.75;;;2.00;;
26157;SDS011;67284;44.782;10.282;2023-11-19T05:19:01;5.65;;;2.28;;
26157;SDS011;67284;44.782;10.282;2023-11-19T05:23:53;2.55;;;1.92;;
26157;SDS011;67284;44.782;10.282;2023-11-19T05:28:45;6.07;;;2.40;;
26157;SDS011;67284;44.782;10.282;2023-11-19T05:33:37;2.92;;;2.45;;
26157;SDS011;67284;44.782;10.282;2023-11-19T05:38:29;2.65;;;1.90;;
26157;SDS011;67284;44.782;10.282;2023-11-19T05:43:21;3.15;;;2.00;;
26157;SDS011;67284;44.782;10.282;2023-11-19T05:48:13;3.63;;;2.22;;
26157;SDS011;67284;44.782;10.282;2023-11-19T05:53:05;5.28;;;2.30;;
26157;SDS011;67284;44.782;10.282;2023-11-19T05:57:58;2.80;;;1.95;;
26157;SDS011;67284;44.782;10.282;2023-11-19T06:02:50;3.95;;;1.80;;
26157;SDS011;67284;44.782;10.282;2023-11-19T06:07:41;4.32;;;2.63;;
26157;SDS011;67284;44.782;10.282;2023-11-19T06:12:33;5.65;;;2.90;;
26157;SDS011;67284;44.782;10.282;2023-11-19T06:17:29;4.20;;;2.75;;
26157;SDS011;67284;44.782;10.282;2023-11-19T06:22:21;6.38;;;2.65;;
26157;SDS011;67284;44.782;10.282;2023-11-19T06:27:13;6.97;;;2.85;;
26157;SDS011;67284;44.782;10.282;2023-11-19T06:32:05;5.60;;;2.80;;
26157;SDS011;67284;44.782;10.282;2023-11-19T06:37:00;3.47;;;2.10;;
26157;SDS011;67284;44.782;10.282;2023-11-19T06:41:54;6.93;;;3.10;;
26157;SDS011;67284;44.782;10.282;2023-11-19T06:46:48;3.50;;;2.20;;
26157;SDS011;67284;44.782;10.282;2023-11-19T06:51:41;7.13;;;3.05;;
26157;SDS011;67284;44.782;10.282;2023-11-19T06:56:34;6.35;;;2.63;;
26157;SDS011;67284;44.782;10.282;2023-11-19T07:01:26;5.18;;;2.70;;
26157;SDS011;67284;44.782;10.282;2023-11-19T07:06:18;3.90;;;2.80;;
26157;SDS011;67284;44.782;10.282;2023-11-19T07:11:25;5.72;;;3.30;;
26157;SDS011;67284;44.782;10.282;2023-11-19T07:16:17;4.82;;;2.90;;
26157;SDS011;67284;44.782;10.282;2023-11-19T07:21:08;6.55;;;3.70;;
26157;SDS011;67284;44.782;10.282;2023-11-19T07:26:04;6.45;;;3.20;;
26157;SDS011;67284;44.782;10.282;2023-11-19T07:30:57;4.80;;;2.47;;
26157;SDS011;67284;44.782;10.282;2023-11-19T07:35:48;4.78;;;2.22;;
26157;SDS011;67284;44.782;10.282;2023-11-19T07:40:40;4.28;;;2.38;;
26157;SDS011;67284;44.782;10.282;2023-11-19T07:45:47;8.40;;;2.60;;
26157;SDS011;67284;44.782;10.282;2023-11-19T07:50:39;4.68;;;2.30;;
26157;SDS011;67284;44.782;10.282;2023-11-19T07:55:34;8.98;;;2.38;;
26157;SDS011;67284;44.782;10.282;2023-11-19T08:00:26;4.28;;;2.50;;
26157;SDS011;67284;44.782;10.282;2023-11-19T08:05:18;5.00;;;2.20;;
26157;SDS011;67284;44.782;10.282;2023-11-19T08:10:10;4.97;;;2.58;;
26157;SDS011;67284;44.782;10.282;2023-11-19T08:15:02;5.32;;;2.97;;
26157;SDS011;67284;44.782;10.282;2023-11-19T08:19:56;3.72;;;3.03;;
26157;SDS011;67284;44.782;10.282;2023-11-19T08:24:48;6.15;;;3.60;;
26157;SDS011;67284;44.782;10.282;2023-11-19T08:29:40;6.50;;;4.13;;
26157;SDS011;67284;44.782;10.282;2023-11-19T08:34:32;9.55;;;4.95;;
26157;SDS011;67284;44.782;10.282;2023-11-19T08:39:24;5.35;;;4.07;;
26157;SDS011;67284;44.782;10.282;2023-11-19T08:44:16;7.22;;;4.47;;
26157;SDS011;67284;44.782;10.282;2023-11-19T08:49:08;9.60;;;5.47;;
26157;SDS011;67284;44.782;10.282;2023-11-19T08:54:00;10.60;;;5.72;;
26157;SDS011;67284;44.782;10.282;2023-11-19T08:58:52;10.40;;;6.00;;
26157;SDS011;67284;44.782;10.282;2023-11-19T09:03:43;10.48;;;6.53;;
26157;SDS011;67284;44.782;10.282;2023-11-19T09:08:35;16.40;;;8.27;;
26157;SDS011;67284;44.782;10.282;2023-11-19T09:13:27;12.82;;;7.40;;
26157;SDS011;67284;44.782;10.282;2023-11-19T09:18:19;18.38;;;7.22;;
26157;SDS011;67284;44.782;10.282;2023-11-19T09:23:12;13.57;;;7.47;;
26157;SDS011;67284;44.782;10.282;2023-11-19T09:28:04;11.73;;;7.28;;
26157;SDS011;67284;44.782;10.282;2023-11-19T09:32:55;14.52;;;7.97;;
26157;SDS011;67284;44.782;10.282;2023-11-19T09:37:48;13.80;;;8.57;;
26157;SDS011;67284;44.782;10.282;2023-11-19T09:42:43;15.40;;;8.63;;
26157;SDS011;67284;44.782;10.282;2023-11-19T09:47:37;16.58;;;7.88;;
26157;SDS011;67284;44.782;10.282;2023-11-19T09:52:29;13.07;;;7.72;;
26157;SDS011;67284;44.782;10.282;2023-11-19T09:57:21;13.73;;;8.30;;
26157;SDS011;67284;44.782;10.282;2023-11-19T10:02:13;12.52;;;8.48;;
26157;SDS011;67284;44.782;10.282;2023-11-19T10:07:06;13.90;;;8.43;;
26157;SDS011;67284;44.782;10.282;2023-11-19T10:11:58;14.20;;;8.35;;
26157;SDS011;67284;44.782;10.282;2023-11-19T10:16:50;16.65;;;9.77;;
26157;SDS011;67284;44.782;10.282;2023-11-19T10:21:42;16.13;;;9.88;;
26157;SDS011;67284;44.782;10.282;2023-11-19T10:26:36;18.52;;;9.88;;
26157;SDS011;67284;44.782;10.282;2023-11-19T10:31:27;18.02;;;10.23;;
26157;SDS011;67284;44.782;10.282;2023-11-19T10:36:20;19.27;;;9.98;;
26157;SDS011;67284;44.782;10.282;2023-11-19T10:41:16;18.23;;;10.18;;
26157;SDS011;67284;44.782;10.282;2023-11-19T10:46:18;19.52;;;10.38;;
26157;SDS011;67284;44.782;10.282;2023-11-19T10:51:16;17.35;;;9.70;;
26157;SDS011;67284;44.782;10.282;2023-11-19T10:56:13;17.60;;;9.88;;
26157;SDS011;67284;44.782;10.282;2023-11-19T11:01:16;17.77;;;10.88;;
26157;SDS011;67284;44.782;10.282;2023-11-19T11:06:12;15.38;;;9.50;;
26157;SDS011;67284;44.782;10.282;2023-11-19T11:11:05;20.92;;;10.80;;
26157;SDS011;67284;44.782;10.282;2023-11-19T11:15:59;20.80;;;11.02;;
26157;SDS011;67284;44.782;10.282;2023-11-19T11:20:54;15.27;;;9.27;;
26157;SDS011;67284;44.782;10.282;2023-11-19T11:26:16;26.95;;;11.88;;
26157;SDS011;67284;44.782;10.282;2023-11-19T11:36:29;17.00;;;9.40;;
26157;SDS011;67284;44.782;10.282;2023-11-19T11:41:25;17.95;;;9.88;;
26157;SDS011;67284;44.782;10.282;2023-11-19T11:56:37;15.23;;;8.98;;
26157;SDS011;67284;44.782;10.282;2023-11-19T12:01:29;17.25;;;9.07;;
26157;SDS011;67284;44.782;10.282;2023-11-19T12:06:22;15.07;;;9.30;;
26157;SDS011;67284;44.782;10.282;2023-11-19T12:11:14;16.27;;;9.30;;
26157;SDS011;67284;44.782;10.282;2023-11-19T12:16:07;15.95;;;9.32;;
26157;SDS011;67284;44.782;10.282;2023-11-19T12:21:01;14.38;;;7.90;;
26157;SDS011;67284;44.782;10.282;2023-11-19T12:25:53;16.00;;;8.38;;
26157;SDS011;67284;44.782;10.282;2023-11-19T12:30:46;12.63;;;7.38;;
26157;SDS011;67284;44.782;10.282;2023-11-19T12:35:40;14.15;;;6.97;;
26157;SDS011;67284;44.782;10.282;2023-11-19T12:40:37;13.37;;;6.90;;
26157;SDS011;67284;44.782;10.282;2023-11-19T12:45:35;10.15;;;5.90;;
26157;SDS011;67284;44.782;10.282;2023-11-19T12:55:29;8.75;;;5.50;;
26157;SDS011;67284;44.782;10.282;2023-11-19T13:00:22;7.97;;;4.88;;
26157;SDS011;67284;44.782;10.282;2023-11-19T13:10:22;10.10;;;4.57;;
26157;SDS011;67284;44.782;10.282;2023-11-19T13:15:23;8.30;;;5.05;;
26157;SDS011;67284;44.782;10.282;2023-11-19T13:20:18;8.82;;;4.43;;
26157;SDS011;67284;44.782;10.282;2023-11-19T13:25:10;7.93;;;4.22;;
26157;SDS011;67284;44.782;10.282;2023-11-19T13:30:04;6.95;;;3.72;;
26157;SDS011;67284;44.782;10.282;2023-11-19T13:34:58;8.25;;;4.70;;
26157;SDS011;67284;44.782;10.282;2023-11-19T13:39:50;7.90;;;4.03;;
26157;SDS011;67284;44.782;10.282;2023-11-19T13:44:42;8.10;;;4.82;;
26157;SDS011;67284;44.782;10.282;2023-11-19T13:49:33;8.27;;;5.20;;
26157;SDS011;67284;44.782;10.282;2023-11-19T13:54:25;9.18;;;4.13;;
26157;SDS011;67284;44.782;10.282;2023-11-19T13:59:18;14.15;;;6.13;;
26157;SDS011;67284;44.782;10.282;2023-11-19T14:04:09;5.88;;;4.35;;
26157;SDS011;67284;44.782;10.282;2023-11-19T14:09:01;7.70;;;5.18;;
26157;SDS011;67284;44.782;10.282;2023-11-19T14:13:54;10.10;;;5.07;;
26157;SDS011;67284;44.782;10.282;2023-11-19T14:18:46;8.20;;;4.25;;
26157;SDS011;67284;44.782;10.282;2023-11-19T14:23:40;5.50;;;3.95;;
26157;SDS011;67284;44.782;10.282;2023-11-19T14:28:32;12.80;;;5.57;;
26157;SDS011;67284;44.782;10.282;2023-11-19T14:33:24;9.50;;;5.68;;
26157;SDS011;67284;44.782;10.282;2023-11-19T14:38:15;10.38;;;5.50;;
26157;SDS011;67284;44.782;10.282;2023-11-19T14:43:08;8.05;;;4.18;;
26157;SDS011;67284;44.782;10.282;2023-11-19T14:48:02;8.45;;;4.50;;
26157;SDS011;67284;44.782;10.282;2023-11-19T14:52:54;10.40;;;4.80;;
26157;SDS011;67284;44.782;10.282;2023-11-19T14:57:46;8.10;;;3.60;;
26157;SDS011;67284;44.782;10.282;2023-11-19T15:02:51;9.77;;;4.43;;
26157;SDS011;67284;44.782;10.282;2023-11-19T15:07:43;5.18;;;3.65;;
26157;SDS011;67284;44.782;10.282;2023-11-19T15:12:36;8.10;;;4.10;;
26157;SDS011;67284;44.782;10.282;2023-11-19T15:17:31;6.13;;;3.95;;
26157;SDS011;67284;44.782;10.282;2023-11-19T15:22:23;8.18;;;4.53;;
26157;SDS011;67284;44.782;10.282;2023-11-19T15:27:14;5.50;;;4.10;;
26157;SDS011;67284;44.782;10.282;2023-11-19T15:32:06;7.93;;;4.15;;
26157;SDS011;67284;44.782;10.282;2023-11-19T15:36:59;8.90;;;4.45;;
26157;SDS011;67284;44.782;10.282;2023-11-19T15:41:52;11.85;;;4.60;;
26157;SDS011;67284;44.782;10.282;2023-11-19T15:46:43;7.07;;;4.55;;
26157;SDS011;67284;44.782;10.282;2023-11-19T15:51:35;9.25;;;5.13;;
26157;SDS011;67284;44.782;10.282;2023-11-19T15:56:27;12.38;;;5.47;;
26157;SDS011;67284;44.782;10.282;2023-11-19T16:01:19;9.95;;;4.68;;
26157;SDS011;67284;44.782;10.282;2023-11-19T16:06:11;10.80;;;6.22;;
26157;SDS011;67284;44.782;10.282;2023-11-19T16:11:03;10.85;;;6.18;;
26157;SDS011;67284;44.782;10.282;2023-11-19T16:15:55;10.90;;;7.07;;
26157;SDS011;67284;44.782;10.282;2023-11-19T16:20:47;16.33;;;7.45;;
26157;SDS011;67284;44.782;10.282;2023-11-19T16:25:39;13.40;;;8.30;;
26157;SDS011;67284;44.782;10.282;2023-11-19T16:30:31;15.15;;;8.63;;
26157;SDS011;67284;44.782;10.282;2023-11-19T16:35:23;14.50;;;9.45;;
26157;SDS011;67284;44.782;10.282;2023-11-19T16:40:15;12.70;;;8.50;;
26157;SDS011;67284;44.782;10.282;2023-11-19T16:45:07;13.23;;;8.05;;
26157;SDS011;67284;44.782;10.282;2023-11-19T16:50:02;13.07;;;8.13;;
26157;SDS011;67284;44.782;10.282;2023-11-19T16:54:55;12.95;;;8.05;;
26157;SDS011;67284;44.782;10.282;2023-11-19T16:59:47;14.40;;;8.00;;
26157;SDS011;67284;44.782;10.282;2023-11-19T17:04:39;17.98;;;8.90;;
26157;SDS011;67284;44.782;10.282;2023-11-19T17:09:33;13.98;;;8.13;;
26157;SDS011;67284;44.782;10.282;2023-11-19T17:14:25;17.65;;;7.53;;
26157;SDS011;67284;44.782;10.282;2023-11-19T17:19:19;15.68;;;7.72;;
26157;SDS011;67284;44.782;10.282;2023-11-19T17:24:12;14.13;;;7.70;;
26157;SDS011;67284;44.782;10.282;2023-11-19T17:29:04;11.77;;;7.03;;
26157;SDS011;67284;44.782;10.282;2023-11-19T17:33:56;13.95;;;7.13;;
26157;SDS011;67284;44.782;10.282;2023-11-19T17:38:49;11.85;;;7.30;;
26157;SDS011;67284;44.782;10.282;2023-11-19T17:43:41;13.32;;;7.97;;
26157;SDS011;67284;44.782;10.282;2023-11-19T17:48:33;14.25;;;8.93;;
26157;SDS011;67284;44.782;10.282;2023-11-19T17:53:25;16.95;;;8.05;;
26157;SDS011;67284;44.782;10.282;2023-11-19T17:58:17;13.20;;;9.00;;
26157;SDS011;67284;44.782;10.282;2023-11-19T18:03:08;15.95;;;8.70;;
26157;SDS011;67284;44.782;10.282;2023-11-19T18:08:00;10.40;;;7.78;;
26157;SDS011;67284;44.782;10.282;2023-11-19T18:12:52;23.92;;;9.95;;
26157;SDS011;67284;44.782;10.282;2023-11-19T18:17:44;17.52;;;10.48;;
26157;SDS011;67284;44.782;10.282;2023-11-19T18:22:37;16.50;;;9.63;;
26157;SDS011;67284;44.782;10.282;2023-11-19T18:27:30;13.45;;;8.60;;
26157;SDS011;67284;44.782;10.282;2023-11-19T18:32:21;11.88;;;8.10;;
26157;SDS011;67284;44.782;10.282;2023-11-19T18:37:13;12.82;;;8.50;;
26157;SDS011;67284;44.782;10.282;2023-11-19T18:42:05;16.25;;;8.48;;
26157;SDS011;67284;44.782;10.282;2023-11-19T18:46:57;14.07;;;7.75;;
26157;SDS011;67284;44.782;10.282;2023-11-19T18:51:49;15.85;;;7.55;;
26157;SDS011;67284;44.782;10.282;2023-11-19T18:56:41;16.45;;;7.90;;
26157;SDS011;67284;44.782;10.282;2023-11-19T19:01:33;16.90;;;8.07;;
26157;SDS011;67284;44.782;10.282;2023-11-19T19:06:25;16.17;;;9.32;;
26157;SDS011;67284;44.782;10.282;2023-11-19T19:11:17;11.55;;;7.53;;
26157;SDS011;67284;44.782;10.282;2023-11-19T19:16:12;12.52;;;7.13;;
26157;SDS011;67284;44.782;10.282;2023-11-19T19:21:04;14.07;;;7.97;;
26157;SDS011;67284;44.782;10.282;2023-11-19T19:25:57;14.07;;;7.57;;
26157;SDS011;67284;44.782;10.282;2023-11-19T19:30:49;12.10;;;8.25;;
26157;SDS011;67284;44.782;10.282;2023-11-19T19:35:41;13.13;;;8.10;;
26157;SDS011;67284;44.782;10.282;2023-11-19T19:40:33;13.13;;;8.85;;
26157;SDS011;67284;44.782;10.282;2023-11-19T19:45:25;13.18;;;8.18;;
26157;SDS011;67284;44.782;10.282;2023-11-19T19:50:17;13.15;;;8.40;;
26157;SDS011;67284;44.782;10.282;2023-11-19T19:55:10;13.43;;;8.80;;
26157;SDS011;67284;44.782;10.282;2023-11-19T20:00:03;17.05;;;9.60;;
26157;SDS011;67284;44.782;10.282;2023-11-19T20:05:05;12.77;;;8.57;;
26157;SDS011;67284;44.782;10.282;2023-11-19T20:10:04;14.20;;;9.73;;
26157;SDS011;67284;44.782;10.282;2023-11-19T20:14:57;11.75;;;8.13;;
26157;SDS011;67284;44.782;10.282;2023-11-19T20:19:52;13.48;;;8.85;;
26157;SDS011;67284;44.782;10.282;2023-11-19T20:24:44;14.23;;;7.95;;
26157;SDS011;67284;44.782;10.282;2023-11-19T20:29:36;14.95;;;8.25;;
26157;SDS011;67284;44.782;10.282;2023-11-19T20:34:28;14.23;;;8.98;;
26157;SDS011;67284;44.782;10.282;2023-11-19T20:39:20;19.95;;;9.65;;
26157;SDS011;67284;44.782;10.282;2023-11-19T20:44:12;14.82;;;8.00;;
26157;SDS011;67284;44.782;10.282;2023-11-19T20:49:03;15.93;;;7.05;;
26157;SDS011;67284;44.782;10.282;2023-11-19T20:53:55;17.00;;;8.48;;
26157;SDS011;67284;44.782;10.282;2023-11-19T20:58:48;10.40;;;7.00;;
26157;SDS011;67284;44.782;10.282;2023-11-19T21:03:40;12.75;;;7.90;;
26157;SDS011;67284;44.782;10.282;2023-11-19T21:08:32;17.67;;;8.52;;
26157;SDS011;67284;44.782;10.282;2023-11-19T21:13:24;11.57;;;8.73;;
26157;SDS011;67284;44.782;10.282;2023-11-19T21:18:16;13.05;;;7.97;;
26157;SDS011;67284;44.782;10.282;2023-11-19T21:23:08;12.00;;;7.20;;
26157;SDS011;67284;44.782;10.282;2023-11-19T21:27:59;13.20;;;7.72;;
26157;SDS011;67284;44.782;10.282;2023-11-19T21:32:51;14.77;;;8.32;;
26157;SDS011;67284;44.782;10.282;2023-11-19T21:37:43;15.10;;;8.45;;
26157;SDS011;67284;44.782;10.282;2023-11-19T21:42:35;18.52;;;8.93;;
26157;SDS011;67284;44.782;10.282;2023-11-19T21:47:28;15.80;;;8.57;;
26157;SDS011;67284;44.782;10.282;2023-11-19T21:52:20;17.77;;;9.10;;
26157;SDS011;67284;44.782;10.282;2023-11-19T21:57:12;14.30;;;7.97;;
26157;SDS011;67284;44.782;10.282;2023-11-19T22:02:04;15.23;;;9.10;;
26157;SDS011;67284;44.782;10.282;2023-11-19T22:06:56;14.68;;;9.40;;
26157;SDS011;67284;44.782;10.282;2023-11-19T22:11:48;13.00;;;8.50;;
26157;SDS011;67284;44.782;10.282;2023-11-19T22:16:40;13.68;;;8.93;;
26157;SDS011;67284;44.782;10.282;2023-11-19T22:21:34;12.55;;;8.07;;
26157;SDS011;67284;44.782;10.282;2023-11-19T22:26:26;12.95;;;6.82;;
26157;SDS011;67284;44.782;10.282;2023-11-19T22:31:18;13.82;;;8.15;;
26157;SDS011;67284;44.782;10.282;2023-11-19T22:36:10;8.52;;;6.45;;
26157;SDS011;67284;44.782;10.282;2023-11-19T22:41:02;9.38;;;6.22;;
26157;SDS011;67284;44.782;10.282;2023-11-19T22:45:54;11.43;;;6.88;;
26157;SDS011;67284;44.782;10.282;2023-11-19T22:50:46;15.77;;;6.80;;
26157;SDS011;67284;44.782;10.282;2023-11-19T22:55:38;12.75;;;7.05;;
26157;SDS011;67284;44.782;10.282;2023-11-19T23:00:30;11.23;;;7.40;;
26157;SDS011;67284;44.782;10.282;2023-11-19T23:05:25;9.88;;;6.32;;
26157;SDS011;67284;44.782;10.282;2023-11-19T23:10:21;13.75;;;8.75;;
26157;SDS011;67284;44.782;10.282;2023-11-19T23:15:14;16.15;;;7.60;;
26157;SDS011;67284;44.782;10.282;2023-11-19T23:20:06;11.27;;;6.78;;
26157;SDS011;67284;44.782;10.282;2023-11-19T23:25:02;9.32;;;6.40;;
26157;SDS011;67284;44.782;10.282;2023-11-19T23:29:54;9.80;;;6.45;;
26157;SDS011;67284;44.782;10.282;2023-11-19T23:34:46;10.40;;;6.93;;
26157;SDS011;67284;44.782;10.282;2023-11-19T23:39:38;11.18;;;6.07;;
26157;SDS011;67284;44.782;10.282;2023-11-19T23:44:30;12.65;;;7.05;;
26157;SDS011;67284;44.782;10.282;2023-11-19T23:49:21;12.10;;;6.28;;
26157;SDS011;67284;44.782;10.282;2023-11-19T23:54:14;11.43;;;6.00;;
26157;SDS011;67284;44.782;10.282;2023-11-19T23:59:07;9.00;;;5.85;;
